^^
Saratoga-Weather Station Historical Data
Daily Summary for May 14, 2020 Units:  Metric    English   Both
Daily Weekly Monthly Yearly Custom
  High: Low: Average:
Temperature: 20.8 °C 14.7 °C 17.5 °C
Dew Point: 15.4 °C 13 °C 14.1 °C
Humidity: 96% 66% 81%
Wind Speed: 25.7km/h 0km/h 5.3km/h
Wind Gust: 25.7km/h - -
Wind- - West
Pressure: 1016.3 hPa 1012.5 hPa -
Precipitation: 0.0 mm    
Historical Graphs
 
 
Tabular Data for May 14, 2020
Time Temperature Dew Point Pressure Wind Wind Speed Wind Gust Humidity Rainfall Rate (Hourly) solar
00:03 14.8 °C 14 °C 1012.5 hPa Calm     95% 0.0 mm 0 W/m2
00:08 14.8 °C 14 °C 1012.5 hPa Calm     95% 0.0 mm 0 W/m2
00:13 14.8 °C 14 °C 1012.5 hPa Calm     95% 0.0 mm 0 W/m2
00:18 14.8 °C 14.2 °C 1012.5 hPa Calm     96% 0.0 mm 0 W/m2
00:23 14.8 °C 14.2 °C 1012.5 hPa Calm     96% 0.0 mm 0 W/m2
00:28 14.7 °C 14.1 °C 1012.5 hPa Calm     96% 0.0 mm 0 W/m2
00:33 14.7 °C 14.1 °C 1012.5 hPa Calm     96% 0.0 mm 0 W/m2
00:39 14.8 °C 14.2 °C 1012.5 hPa Calm     96% 0.0 mm 0 W/m2
00:44 14.8 °C 14.2 °C 1012.5 hPa West 4.7 km/h 6.4 km/h 96% 0.0 mm 0 W/m2
00:49 15.1 °C 14.5 °C 1012.5 hPa Calm     96% 0.0 mm 0 W/m2
00:54 15.3 °C 14.7 °C 1012.5 hPa West 1.4 km/h 6.4 km/h 96% 0.0 mm 0 W/m2
00:59 15.6 °C 15 °C 1012.5 hPa West 4.7 km/h 4.8 km/h 96% 0.0 mm 0 W/m2
01:04 15.7 °C 15.1 °C 1012.5 hPa SSW 1.4 km/h 11.3 km/h 96% 0.0 mm 0 W/m2
01:09 15.8 °C 15.2 °C 1012.5 hPa Calm   3.2 km/h 96% 0.0 mm 0 W/m2
01:14 15.9 °C 15.3 °C 1012.5 hPa WNW 9.7 km/h 9.7 km/h 96% 0.0 mm 0 W/m2
01:19 16 °C 15.2 °C 1012.5 hPa West 3.2 km/h 6.4 km/h 95% 0.0 mm 0 W/m2
01:24 16.1 °C 15.3 °C 1012.5 hPa NE 1.4 km/h 4.8 km/h 95% 0.0 mm 0 W/m2
01:29 16.2 °C 15.2 °C 1012.5 hPa WSW 1.4 km/h 4.8 km/h 94% 0.0 mm 0 W/m2
01:34 16.3 °C 15.3 °C 1012.5 hPa WNW 1.4 km/h 6.4 km/h 94% 0.0 mm 0 W/m2
01:39 16.4 °C 15.3 °C 1012.5 hPa NNW 3.2 km/h 3.2 km/h 93% 0.0 mm 0 W/m2
01:44 16.5 °C 15.4 °C 1012.5 hPa WSW 1.4 km/h 3.2 km/h 93% 0.0 mm 0 W/m2
01:49 16.5 °C 15.2 °C 1012.5 hPa NW 1.4 km/h 1.6 km/h 92% 0.0 mm 0 W/m2
01:54 16.5 °C 15.2 °C 1012.5 hPa Calm   1.6 km/h 92% 0.0 mm 0 W/m2
01:59 16.4 °C 15.1 °C 1012.5 hPa NW 1.4 km/h 1.6 km/h 92% 0.0 mm 0 W/m2
02:04 16.4 °C 15.1 °C 1012.5 hPa WNW 3.2 km/h 4.8 km/h 92% 0.0 mm 0 W/m2
02:09 16.4 °C 15.1 °C 1012.9 hPa West 3.2 km/h 4.8 km/h 92% 0.0 mm 0 W/m2
02:14 16.4 °C 15.1 °C 1012.9 hPa NE 1.4 km/h 3.2 km/h 92% 0.0 mm 0 W/m2
02:19 16.3 °C 15 °C 1012.9 hPa Calm   1.6 km/h 92% 0.0 mm 0 W/m2
02:24 16.3 °C 15 °C 1012.9 hPa Calm     92% 0.0 mm 0 W/m2
02:29 16.2 °C 15.1 °C 1012.9 hPa WSW 1.4 km/h 3.2 km/h 93% 0.0 mm 0 W/m2
02:34 16.1 °C 15 °C 1012.9 hPa Calm     93% 0.0 mm 0 W/m2
02:39 16.1 °C 15 °C 1012.9 hPa West 1.4 km/h 4.8 km/h 93% 0.0 mm 0 W/m2
02:44 16.1 °C 15 °C 1012.9 hPa WNW 1.4 km/h 4.8 km/h 93% 0.0 mm 0 W/m2
02:50 16.2 °C 15.1 °C 1012.9 hPa West 4.7 km/h 4.8 km/h 93% 0.0 mm 0 W/m2
02:55 16.2 °C 15.1 °C 1012.9 hPa WNW 4.7 km/h 6.4 km/h 93% 0.0 mm 0 W/m2
03:00 16.2 °C 15.1 °C 1012.9 hPa West 3.2 km/h 6.4 km/h 93% 0.0 mm 0 W/m2
03:05 16.3 °C 15.2 °C 1012.9 hPa West 3.2 km/h 4.8 km/h 93% 0.0 mm 0 W/m2
03:10 16.3 °C 15 °C 1012.9 hPa West 9.7 km/h 9.7 km/h 92% 0.0 mm 0 W/m2
03:15 16.4 °C 15.1 °C 1012.9 hPa WSW 4.7 km/h 6.4 km/h 92% 0.0 mm 0 W/m2
03:20 16.4 °C 14.9 °C 1012.9 hPa West 6.4 km/h 11.3 km/h 91% 0.0 mm 0 W/m2
03:25 16.5 °C 15 °C 1012.9 hPa SSW 6.4 km/h 8 km/h 91% 0.0 mm 0 W/m2
03:30 16.4 °C 14.9 °C 1012.9 hPa WNW 3.2 km/h 12.9 km/h 91% 0.0 mm 0 W/m2
03:35 16.5 °C 15 °C 1012.9 hPa SSW 6.4 km/h 14.5 km/h 91% 0.0 mm 0 W/m2
03:40 16.5 °C 14.9 °C 1012.9 hPa West 13 km/h 19.3 km/h 90% 0.0 mm 0 W/m2
03:45 16.6 °C 15 °C 1012.9 hPa WSW 19.5 km/h 19.3 km/h 90% 0.0 mm 0 W/m2
03:50 16.6 °C 14.8 °C 1012.9 hPa WNW 7.9 km/h 16.1 km/h 89% 0.0 mm 0 W/m2
03:55 16.6 °C 14.8 °C 1012.9 hPa SW 6.4 km/h 9.7 km/h 89% 0.0 mm 0 W/m2
04:00 16.5 °C 14.5 °C 1012.9 hPa WNW 13 km/h 16.1 km/h 88% 0.0 mm 0 W/m2
04:10 16.5 °C 14.3 °C 1012.9 hPa West 9.7 km/h 19.3 km/h 87% 0.0 mm 0 W/m2
04:15 16.4 °C 14.2 °C 1012.9 hPa West 17.7 km/h 22.5 km/h 87% 0.0 mm 0 W/m2
04:20 16.4 °C 14.4 °C 1012.9 hPa SW 7.9 km/h 17.7 km/h 88% 0.0 mm 0 W/m2
04:25 16.3 °C 14.3 °C 1012.5 hPa West 9.7 km/h 14.5 km/h 88% 0.0 mm 0 W/m2
04:30 16.2 °C 14.2 °C 1012.9 hPa West 19.5 km/h 24.1 km/h 88% 0.0 mm 0 W/m2
04:35 16.2 °C 14 °C 1012.9 hPa WSW 16.3 km/h 16.1 km/h 87% 0.0 mm 0 W/m2
04:40 16.1 °C 13.9 °C 1012.9 hPa West 11.1 km/h 16.1 km/h 87% 0.0 mm 0 W/m2
04:45 16.1 °C 13.9 °C 1012.9 hPa WNW 16.3 km/h 24.1 km/h 87% 0.0 mm 0 W/m2
04:50 16 °C 13.8 °C 1012.9 hPa NW 7.9 km/h 19.3 km/h 87% 0.0 mm 0 W/m2
04:55 15.9 °C 13.7 °C 1012.9 hPa WNW 7.9 km/h 17.7 km/h 87% 0.0 mm 0 W/m2
05:00 15.9 °C 13.7 °C 1012.9 hPa West 11.1 km/h 16.1 km/h 87% 0.0 mm 0 W/m2
05:05 15.8 °C 13.6 °C 1012.9 hPa West 11.1 km/h 24.1 km/h 87% 0.0 mm 0 W/m2
05:10 15.8 °C 13.6 °C 1012.9 hPa WNW 6.4 km/h 14.5 km/h 87% 0.0 mm 0 W/m2
05:15 15.7 °C 13.4 °C 1012.9 hPa NW 16.3 km/h 16.1 km/h 86% 0.0 mm 0 W/m2
05:20 15.7 °C 13.5 °C 1012.9 hPa West 17.7 km/h 22.5 km/h 87% 0.0 mm 0 W/m2
05:25 15.6 °C 13.4 °C 1012.9 hPa WNW 7.9 km/h 12.9 km/h 87% 0.0 mm 0 W/m2
05:30 15.6 °C 13.4 °C 1012.9 hPa WSW 7.9 km/h 22.5 km/h 87% 0.0 mm 0 W/m2
05:36 15.6 °C 13.3 °C 1012.9 hPa WSW 22.7 km/h 22.5 km/h 86% 0.0 mm 0 W/m2
05:41 15.6 °C 13.4 °C 1013.2 hPa West 9.7 km/h 16.1 km/h 87% 0.0 mm 0 W/m2
05:46 15.4 °C 13.2 °C 1013.2 hPa WSW 25.7 km/h 25.7 km/h 87% 0.0 mm 5 W/m2
05:51 15.4 °C 13.2 °C 1013.2 hPa West 16.3 km/h 17.7 km/h 87% 0.0 mm 7 W/m2
05:56 15.4 °C 13.2 °C 1013.2 hPa West 14.3 km/h 19.3 km/h 87% 0.0 mm 9 W/m2
06:01 15.3 °C 13.1 °C 1013.2 hPa WSW 20.9 km/h 20.9 km/h 87% 0.0 mm 12 W/m2
06:06 15.3 °C 13.1 °C 1013.2 hPa WNW 7.9 km/h 19.3 km/h 87% 0.0 mm 14 W/m2
06:11 15.3 °C 13.1 °C 1013.2 hPa WSW 13 km/h 19.3 km/h 87% 0.0 mm 16 W/m2
06:16 15.3 °C 13.1 °C 1012.9 hPa NW 7.9 km/h 14.5 km/h 87% 0.0 mm 19 W/m2
06:21 15.2 °C 13 °C 1012.9 hPa SW 14.3 km/h 19.3 km/h 87% 0.0 mm 21 W/m2
06:26 15.2 °C 13 °C 1013.2 hPa WNW 6.4 km/h 19.3 km/h 87% 0.0 mm 25 W/m2
06:31 15.2 °C 13 °C 1013.2 hPa West 14.3 km/h 17.7 km/h 87% 0.0 mm 30 W/m2
06:36 15.2 °C 13 °C 1013.2 hPa West 4.7 km/h 19.3 km/h 87% 0.0 mm 32 W/m2
06:42 15.2 °C 13 °C 1013.2 hPa WNW 11.1 km/h 14.5 km/h 87% 0.0 mm 37 W/m2
06:47 15.2 °C 13.2 °C 1013.2 hPa West 11.1 km/h 12.9 km/h 88% 0.0 mm 44 W/m2
06:52 15.1 °C 13.1 °C 1013.2 hPa West 6.4 km/h 19.3 km/h 88% 0.0 mm 49 W/m2
06:57 15.1 °C 13.1 °C 1013.2 hPa WSW 6.4 km/h 12.9 km/h 88% 0.0 mm 56 W/m2
07:02 15.1 °C 13.1 °C 1013.2 hPa West 6.4 km/h 19.3 km/h 88% 0.0 mm 62 W/m2
07:07 15.1 °C 13.1 °C 1013.2 hPa NW 11.1 km/h 14.5 km/h 88% 0.0 mm 67 W/m2
07:12 15.1 °C 13.1 °C 1013.2 hPa West 22.7 km/h 25.7 km/h 88% 0.0 mm 72 W/m2
07:17 15 °C 13 °C 1013.2 hPa SW 9.7 km/h 17.7 km/h 88% 0.0 mm 77 W/m2
07:22 15 °C 13 °C 1013.2 hPa SW 6.4 km/h 25.7 km/h 88% 0.0 mm 79 W/m2
07:27 15 °C 13 °C 1013.2 hPa WNW 3.2 km/h 12.9 km/h 88% 0.0 mm 84 W/m2
07:32 15 °C 13 °C 1013.5 hPa WNW 7.9 km/h 16.1 km/h 88% 0.0 mm 90 W/m2
07:37 15 °C 13 °C 1013.5 hPa West 9.7 km/h 11.3 km/h 88% 0.0 mm 93 W/m2
07:42 15 °C 13.2 °C 1013.5 hPa WNW 4.7 km/h 9.7 km/h 89% 0.0 mm 102 W/m2
07:47 15 °C 13.2 °C 1013.5 hPa WNW 7.9 km/h 17.7 km/h 89% 0.0 mm 109 W/m2
07:52 15 °C 13.2 °C 1013.5 hPa West 6.4 km/h 6.4 km/h 89% 0.0 mm 116 W/m2
07:57 15.1 °C 13.3 °C 1013.5 hPa NNW 7.9 km/h 19.3 km/h 89% 0.0 mm 127 W/m2
08:07 15.1 °C 13.1 °C 1013.9 hPa SW 9.7 km/h 19.3 km/h 88% 0.0 mm 144 W/m2
08:12 15.2 °C 13.4 °C 1013.9 hPa NW 6.4 km/h 9.7 km/h 89% 0.0 mm 144 W/m2
08:17 15.2 °C 13.4 °C 1013.9 hPa WNW 4.7 km/h 12.9 km/h 89% 0.0 mm 158 W/m2
08:22 15.3 °C 13.3 °C 1013.9 hPa West 3.2 km/h 9.7 km/h 88% 0.0 mm 181 W/m2
08:27 15.4 °C 13.6 °C 1013.9 hPa West 14.3 km/h 14.5 km/h 89% 0.0 mm 202 W/m2
08:32 15.5 °C 13.5 °C 1013.9 hPa WNW 3.2 km/h 6.4 km/h 88% 0.0 mm 209 W/m2
08:38 15.6 °C 13.6 °C 1014.2 hPa WNW 3.2 km/h 14.5 km/h 88% 0.0 mm 218 W/m2
08:43 15.7 °C 13.7 °C 1014.2 hPa West 3.2 km/h 12.9 km/h 88% 0.0 mm 225 W/m2
08:48 15.8 °C 13.8 °C 1014.2 hPa West 4.7 km/h 14.5 km/h 88% 0.0 mm 236 W/m2
08:53 15.8 °C 13.8 °C 1014.2 hPa WNW 1.4 km/h 8 km/h 88% 0.0 mm 244 W/m2
08:58 15.9 °C 13.9 °C 1014.6 hPa WNW 3.2 km/h 4.8 km/h 88% 0.0 mm 267 W/m2
09:03 16 °C 14 °C 1014.6 hPa WNW 1.4 km/h 6.4 km/h 88% 0.0 mm 267 W/m2
09:08 16.1 °C 13.9 °C 1014.6 hPa WNW 4.7 km/h 6.4 km/h 87% 0.0 mm 279 W/m2
09:13 16.2 °C 14 °C 1014.6 hPa WSW 7.9 km/h 14.5 km/h 87% 0.0 mm 290 W/m2
09:18 16.2 °C 14 °C 1014.6 hPa NW 9.7 km/h 12.9 km/h 87% 0.0 mm 260 W/m2
09:23 16.2 °C 14 °C 1014.6 hPa NW 7.9 km/h 9.7 km/h 87% 0.0 mm 250 W/m2
09:28 16.3 °C 14.1 °C 1014.9 hPa SW 6.4 km/h 6.4 km/h 87% 0.0 mm 241 W/m2
09:33 16.4 °C 14.1 °C 1014.9 hPa WNW 6.4 km/h 6.4 km/h 86% 0.0 mm 313 W/m2
09:38 16.4 °C 14.1 °C 1014.9 hPa SW 6.4 km/h 6.4 km/h 86% 0.0 mm 257 W/m2
09:43 16.5 °C 14.1 °C 1014.9 hPa NW 1.4 km/h 6.4 km/h 86% 0.0 mm 216 W/m2
09:48 16.5 °C 14 °C 1014.9 hPa West 1.4 km/h 8 km/h 85% 0.0 mm 197 W/m2
09:53 16.4 °C 14.1 °C 1014.9 hPa WSW 4.7 km/h 8 km/h 86% 0.0 mm 190 W/m2
09:58 16.5 °C 14.1 °C 1015.2 hPa NNW 1.4 km/h 6.4 km/h 86% 0.0 mm 185 W/m2
10:03 16.5 °C 14.1 °C 1015.2 hPa WSW 3.2 km/h 9.7 km/h 86% 0.0 mm 176 W/m2
10:08 16.5 °C 14.1 °C 1015.2 hPa WNW 4.7 km/h 9.7 km/h 86% 0.0 mm 199 W/m2
10:13 16.6 °C 14.2 °C 1015.2 hPa WNW 3.2 km/h 6.4 km/h 86% 0.0 mm 165 W/m2
10:19 16.6 °C 14.2 °C 1015.2 hPa Calm   9.7 km/h 86% 0.0 mm 183 W/m2
10:24 16.6 °C 14.2 °C 1015.2 hPa WNW 6.4 km/h 6.4 km/h 86% 0.0 mm 199 W/m2
10:29 16.7 °C 14.3 °C 1015.2 hPa WNW 6.4 km/h 12.9 km/h 86% 0.0 mm 211 W/m2
10:34 16.7 °C 14.3 °C 1015.2 hPa Calm   6.4 km/h 86% 0.0 mm 213 W/m2
10:39 16.7 °C 14.2 °C 1015.2 hPa WNW 3.2 km/h 12.9 km/h 85% 0.0 mm 206 W/m2
10:44 16.7 °C 14.2 °C 1015.2 hPa WSW 6.4 km/h 6.4 km/h 85% 0.0 mm 241 W/m2
10:49 16.8 °C 14.3 °C 1015.2 hPa West 6.4 km/h 6.4 km/h 85% 0.0 mm 236 W/m2
10:54 16.8 °C 14.3 °C 1015.2 hPa NNW 6.4 km/h 8 km/h 85% 0.0 mm 181 W/m2
10:59 16.9 °C 14.4 °C 1015.2 hPa West 6.4 km/h 12.9 km/h 85% 0.0 mm 262 W/m2
11:04 17 °C 14.5 °C 1015.2 hPa West 4.7 km/h 4.8 km/h 85% 0.0 mm 285 W/m2
11:09 17.1 °C 14.4 °C 1015.2 hPa West 4.7 km/h 11.3 km/h 84% 0.0 mm 174 W/m2
11:14 17.1 °C 14.4 °C 1015.6 hPa WNW 7.9 km/h 11.3 km/h 84% 0.0 mm 276 W/m2
11:19 17.1 °C 14.6 °C 1015.2 hPa WNW 4.7 km/h 6.4 km/h 85% 0.0 mm 248 W/m2
11:24 17.2 °C 14.5 °C 1015.2 hPa NW 1.4 km/h 4.8 km/h 84% 0.0 mm 171 W/m2
11:29 17.3 °C 14.6 °C 1015.6 hPa WSW 4.7 km/h 6.4 km/h 84% 0.0 mm 200 W/m2
11:34 17.3 °C 14.4 °C 1015.6 hPa West 6.4 km/h 8 km/h 83% 0.0 mm 156 W/m2
11:39 17.3 °C 14.2 °C 1015.6 hPa WNW 3.2 km/h 4.8 km/h 82% 0.0 mm 83 W/m2
11:49 17.3 °C 14.4 °C 1015.6 hPa WSW 11.1 km/h 11.3 km/h 83% 0.0 mm 272 W/m2
11:54 17.4 °C 14.3 °C 1015.6 hPa West 4.7 km/h 9.7 km/h 82% 0.0 mm 258 W/m2
11:59 17.5 °C 14.4 °C 1015.6 hPa WNW 4.7 km/h 4.8 km/h 82% 0.0 mm 193 W/m2
12:04 17.7 °C 14.6 °C 1015.6 hPa WNW 3.2 km/h 6.4 km/h 82% 0.0 mm 241 W/m2
12:09 17.8 °C 14.5 °C 1015.6 hPa West 4.7 km/h 11.3 km/h 81% 0.0 mm 322 W/m2
12:14 17.8 °C 14.5 °C 1015.6 hPa West 6.4 km/h 9.7 km/h 81% 0.0 mm 229 W/m2
12:19 17.9 °C 14.6 °C 1015.6 hPa NW 4.7 km/h 8 km/h 81% 0.0 mm 241 W/m2
12:24 18 °C 14.7 °C 1015.6 hPa WNW 3.2 km/h 6.4 km/h 81% 0.0 mm 434 W/m2
12:29 18.2 °C 14.7 °C 1015.6 hPa WNW 3.2 km/h 6.4 km/h 80% 0.0 mm 403 W/m2
12:34 18.3 °C 14.6 °C 1015.6 hPa West 3.2 km/h 6.4 km/h 79% 0.0 mm 313 W/m2
12:39 18.4 °C 14.7 °C 1015.6 hPa West 3.2 km/h 9.7 km/h 79% 0.0 mm 244 W/m2
12:44 18.4 °C 14.5 °C 1015.6 hPa WNW 4.7 km/h 9.7 km/h 78% 0.0 mm 264 W/m2
12:49 18.3 °C 14.4 °C 1015.6 hPa NW 3.2 km/h 8 km/h 78% 0.0 mm 269 W/m2
12:54 18.3 °C 14.6 °C 1015.6 hPa NNW 4.7 km/h 9.7 km/h 79% 0.0 mm 223 W/m2
12:59 18.4 °C 14.5 °C 1015.2 hPa NW 7.9 km/h 8 km/h 78% 0.0 mm 276 W/m2
13:04 18.4 °C 14.7 °C 1015.6 hPa West 1.4 km/h 4.8 km/h 79% 0.0 mm 394 W/m2
13:09 18.7 °C 15 °C 1015.2 hPa WNW 9.7 km/h 11.3 km/h 79% 0.0 mm 519 W/m2
13:14 18.8 °C 14.9 °C 1015.6 hPa WNW 4.7 km/h 12.9 km/h 78% 0.0 mm 455 W/m2
13:19 19.1 °C 15 °C 1015.2 hPa WNW 4.7 km/h 4.8 km/h 77% 0.0 mm 550 W/m2
13:24 19.3 °C 15 °C 1015.2 hPa West 3.2 km/h 6.4 km/h 76% 0.0 mm 482 W/m2
13:29 19.6 °C 14.8 °C 1015.2 hPa WNW 3.2 km/h 11.3 km/h 74% 0.0 mm 520 W/m2
13:34 19.8 °C 14.8 °C 1015.2 hPa WSW 1.4 km/h 6.4 km/h 73% 0.0 mm 526 W/m2
13:39 19.8 °C 14.8 °C 1015.2 hPa NW 1.4 km/h 6.4 km/h 73% 0.0 mm 510 W/m2
13:44 19.9 °C 14.7 °C 1015.2 hPa West 3.2 km/h 11.3 km/h 72% 0.0 mm 844 W/m2
13:49 20.2 °C 15 °C 1015.2 hPa North 3.2 km/h 11.3 km/h 72% 0.0 mm 343 W/m2
13:54 20.1 °C 14.9 °C 1015.2 hPa North 3.2 km/h 6.4 km/h 72% 0.0 mm 250 W/m2
13:59 19.9 °C 14.7 °C 1015.2 hPa NNW 6.4 km/h 11.3 km/h 72% 0.0 mm 283 W/m2
14:04 19.8 °C 14.4 °C 1015.2 hPa WNW 1.4 km/h 11.3 km/h 71% 0.0 mm 309 W/m2
14:09 19.8 °C 14.6 °C 1015.2 hPa WNW 1.4 km/h 9.7 km/h 72% 0.0 mm 334 W/m2
14:15 19.8 °C 14.4 °C 1015.2 hPa NNW 6.4 km/h 11.3 km/h 71% 0.0 mm 338 W/m2
14:20 19.9 °C 14.5 °C 1015.2 hPa WSW 6.4 km/h 12.9 km/h 71% 0.0 mm 392 W/m2
14:25 20.1 °C 14.7 °C 1015.2 hPa NW 7.9 km/h 8 km/h 71% 0.0 mm 457 W/m2
14:30 20.2 °C 14.3 °C 1015.2 hPa WSW 4.7 km/h 14.5 km/h 69% 0.0 mm 434 W/m2
14:35 20.3 °C 14.2 °C 1015.2 hPa SW 3.2 km/h 8 km/h 68% 0.0 mm 345 W/m2
14:40 20.3 °C 14.6 °C 1015.2 hPa WNW 4.7 km/h 9.7 km/h 70% 0.0 mm 302 W/m2
14:45 20.3 °C 14.6 °C 1015.2 hPa WNW 4.7 km/h 9.7 km/h 70% 0.0 mm 371 W/m2
14:50 20.4 °C 14.7 °C 1015.2 hPa NNW 4.7 km/h 4.8 km/h 70% 0.0 mm 489 W/m2
14:55 20.5 °C 14.6 °C 1015.2 hPa WNW 1.4 km/h 6.4 km/h 69% 0.0 mm 380 W/m2
15:00 20.6 °C 14.7 °C 1015.2 hPa West 9.7 km/h 9.7 km/h 69% 0.0 mm 422 W/m2
15:05 20.6 °C 14.7 °C 1015.2 hPa WNW 7.9 km/h 16.1 km/h 69% 0.0 mm 468 W/m2
15:15 20.4 °C 14.5 °C 1014.9 hPa WNW 6.4 km/h 11.3 km/h 69% 0.0 mm 432 W/m2
15:20 20.5 °C 14.8 °C 1014.9 hPa North 6.4 km/h 9.7 km/h 70% 0.0 mm 454 W/m2
15:25 20.7 °C 14.6 °C 1014.9 hPa West 1.4 km/h 6.4 km/h 68% 0.0 mm 475 W/m2
15:30 20.8 °C 14.7 °C 1014.9 hPa WNW 4.7 km/h 8 km/h 68% 0.0 mm 534 W/m2
15:35 20.8 °C 14.7 °C 1015.2 hPa SW 9.7 km/h 14.5 km/h 68% 0.0 mm 482 W/m2
15:41 20.8 °C 14.7 °C 1014.9 hPa NW 4.7 km/h 11.3 km/h 68% 0.0 mm 401 W/m2
15:46 20.7 °C 14.6 °C 1015.2 hPa WNW 3.2 km/h 6.4 km/h 68% 0.0 mm 403 W/m2
15:51 20.7 °C 14.6 °C 1015.2 hPa WSW 13 km/h 12.9 km/h 68% 0.0 mm 404 W/m2
15:56 20.6 °C 14.9 °C 1015.2 hPa NW 3.2 km/h 4.8 km/h 70% 0.0 mm 415 W/m2
16:01 20.6 °C 14.5 °C 1014.9 hPa WNW 7.9 km/h 14.5 km/h 68% 0.0 mm 399 W/m2
16:06 20.5 °C 14.4 °C 1015.2 hPa WNW 7.9 km/h 19.3 km/h 68% 0.0 mm 350 W/m2
16:11 20.4 °C 14.5 °C 1015.2 hPa WSW 11.1 km/h 14.5 km/h 69% 0.0 mm 323 W/m2
16:16 20.3 °C 14.2 °C 1014.9 hPa WNW 7.9 km/h 19.3 km/h 68% 0.0 mm 318 W/m2
16:21 20.3 °C 14.2 °C 1014.9 hPa NW 3.2 km/h 6.4 km/h 68% 0.0 mm 316 W/m2
16:26 20.3 °C 13.7 °C 1014.9 hPa NW 4.7 km/h 16.1 km/h 66% 0.0 mm 345 W/m2
16:31 20.5 °C 14.4 °C 1014.9 hPa West 3.2 km/h 11.3 km/h 68% 0.0 mm 394 W/m2
16:36 20.6 °C 14.3 °C 1014.9 hPa WNW 11.1 km/h 11.3 km/h 67% 0.0 mm 367 W/m2
16:41 20.6 °C 14.3 °C 1014.9 hPa West 6.4 km/h 19.3 km/h 67% 0.0 mm 392 W/m2
16:46 20.5 °C 14.2 °C 1014.9 hPa West 11.1 km/h 19.3 km/h 67% 0.0 mm 338 W/m2
16:51 20.4 °C 14.3 °C 1014.9 hPa West 4.7 km/h 12.9 km/h 68% 0.0 mm 327 W/m2
16:56 20.4 °C 14.3 °C 1014.6 hPa WNW 6.4 km/h 19.3 km/h 68% 0.0 mm 320 W/m2
17:01 20.4 °C 14.3 °C 1014.9 hPa WNW 3.2 km/h 6.4 km/h 68% 0.0 mm 297 W/m2
17:06 20.4 °C 14.5 °C 1014.9 hPa WSW 6.4 km/h 11.3 km/h 69% 0.0 mm 264 W/m2
17:11 20.4 °C 14.5 °C 1014.9 hPa West 4.7 km/h 11.3 km/h 69% 0.0 mm 257 W/m2
17:16 20.3 °C 14.2 °C 1014.9 hPa West 9.7 km/h 11.3 km/h 68% 0.0 mm 246 W/m2
17:21 20.3 °C 14.2 °C 1014.9 hPa WSW 7.9 km/h 11.3 km/h 68% 0.0 mm 232 W/m2
17:26 20.3 °C 14.4 °C 1014.9 hPa West 6.4 km/h 14.5 km/h 69% 0.0 mm 214 W/m2
17:31 20.2 °C 14.1 °C 1014.9 hPa West 14.3 km/h 16.1 km/h 68% 0.0 mm 190 W/m2
17:36 20.1 °C 13.5 °C 1014.9 hPa West 4.7 km/h 12.9 km/h 66% 0.0 mm 172 W/m2
17:41 20.1 °C 13.5 °C 1014.9 hPa WNW 9.7 km/h 12.9 km/h 66% 0.0 mm 169 W/m2
17:46 20.1 °C 13.8 °C 1014.9 hPa West 6.4 km/h 9.7 km/h 67% 0.0 mm 163 W/m2
17:51 20 °C 13.5 °C 1014.9 hPa West 9.7 km/h 12.9 km/h 66% 0.0 mm 149 W/m2
17:56 20 °C 13.7 °C 1014.9 hPa WNW 3.2 km/h 4.8 km/h 67% 0.0 mm 135 W/m2
18:01 19.9 °C 13.6 °C 1014.9 hPa WNW 3.2 km/h 11.3 km/h 67% 0.0 mm 132 W/m2
18:06 19.9 °C 13.4 °C 1014.6 hPa West 4.7 km/h 9.7 km/h 66% 0.0 mm 127 W/m2
18:11 19.8 °C 13.5 °C 1014.9 hPa West 6.4 km/h 11.3 km/h 67% 0.0 mm 120 W/m2
18:16 19.8 °C 13.5 °C 1014.9 hPa West 4.7 km/h 6.4 km/h 67% 0.0 mm 109 W/m2
18:21 19.7 °C 13.4 °C 1014.9 hPa West 1.4 km/h 6.4 km/h 67% 0.0 mm 97 W/m2
18:26 19.7 °C 13.4 °C 1014.9 hPa West 4.7 km/h 6.4 km/h 67% 0.0 mm 90 W/m2
18:31 19.7 °C 13.6 °C 1014.9 hPa West 1.4 km/h 9.7 km/h 68% 0.0 mm 88 W/m2
18:37 19.6 °C 13.5 °C 1014.9 hPa WSW 6.4 km/h 11.3 km/h 68% 0.0 mm 84 W/m2
18:42 19.6 °C 13.5 °C 1014.9 hPa Calm   4.8 km/h 68% 0.0 mm 79 W/m2
18:47 19.6 °C 13.5 °C 1014.9 hPa NW 4.7 km/h 4.8 km/h 68% 0.0 mm 74 W/m2
18:52 19.5 °C 13.7 °C 1014.9 hPa WNW 3.2 km/h 4.8 km/h 69% 0.0 mm 77 W/m2
18:57 19.4 °C 13.6 °C 1014.9 hPa West 4.7 km/h 6.4 km/h 69% 0.0 mm 77 W/m2
19:02 19.4 °C 13.8 °C 1014.9 hPa West 11.1 km/h 11.3 km/h 70% 0.0 mm 72 W/m2
19:07 19.4 °C 13.8 °C 1014.9 hPa NNW 1.4 km/h 6.4 km/h 70% 0.0 mm 70 W/m2
19:12 19.3 °C 13.5 °C 1014.9 hPa WNW 8 km/h 8 km/h 69% 0.0 mm 67 W/m2
19:17 19.2 °C 13.6 °C 1014.9 hPa WNW 3.2 km/h 6.4 km/h 70% 0.0 mm 67 W/m2
19:22 19.2 °C 13.6 °C 1014.9 hPa West 4.7 km/h 4.8 km/h 70% 0.0 mm 65 W/m2
19:27 19.1 °C 13.7 °C 1014.9 hPa West 3.2 km/h 4.8 km/h 71% 0.0 mm 60 W/m2
19:32 19.1 °C 13.7 °C 1014.9 hPa West 4.7 km/h 4.8 km/h 71% 0.0 mm 56 W/m2
19:37 19.1 °C 13.7 °C 1014.9 hPa WNW 4.7 km/h 6.4 km/h 71% 0.0 mm 53 W/m2
19:42 19 °C 13.6 °C 1014.9 hPa West 1.4 km/h 3.2 km/h 71% 0.0 mm 54 W/m2
19:47 19 °C 13.8 °C 1014.9 hPa WNW 3.2 km/h 4.8 km/h 72% 0.0 mm 58 W/m2
19:52 18.9 °C 13.7 °C 1015.2 hPa WNW 3.2 km/h 4.8 km/h 72% 0.0 mm 63 W/m2
19:57 18.9 °C 14 °C 1015.2 hPa West 1.4 km/h 6.4 km/h 73% 0.0 mm 63 W/m2
20:02 18.9 °C 14 °C 1015.2 hPa West 3.2 km/h 4.8 km/h 73% 0.0 mm 62 W/m2
20:07 18.9 °C 14.2 °C 1015.2 hPa West 4.7 km/h 4.8 km/h 74% 0.0 mm 58 W/m2
20:12 18.8 °C 13.9 °C 1015.2 hPa WNW 3.2 km/h 6.4 km/h 73% 0.0 mm 54 W/m2
20:17 18.8 °C 14.1 °C 1015.2 hPa WNW 4.7 km/h 11.3 km/h 74% 0.0 mm 51 W/m2
20:22 18.8 °C 14.1 °C 1015.2 hPa West 4.7 km/h 4.8 km/h 74% 0.0 mm 47 W/m2
20:27 18.7 °C 14.2 °C 1015.2 hPa West 4.7 km/h 11.3 km/h 75% 0.0 mm 44 W/m2
20:32 18.7 °C 14.2 °C 1015.2 hPa West 3.2 km/h 3.2 km/h 75% 0.0 mm 44 W/m2
20:37 18.7 °C 14.4 °C 1015.2 hPa West 6.4 km/h 6.4 km/h 76% 0.0 mm 40 W/m2
20:42 18.6 °C 14.3 °C 1015.2 hPa West 1.4 km/h 6.4 km/h 76% 0.0 mm 33 W/m2
20:47 18.5 °C 14.2 °C 1015.2 hPa West 1.4 km/h 4.8 km/h 76% 0.0 mm 28 W/m2
20:52 18.4 °C 14.1 °C 1015.2 hPa WSW 3.2 km/h 4.8 km/h 76% 0.0 mm 23 W/m2
20:57 18.4 °C 14.1 °C 1015.2 hPa West 3.2 km/h 6.4 km/h 76% 0.0 mm 19 W/m2
21:02 18.3 °C 14.2 °C 1015.2 hPa West 3.2 km/h 3.2 km/h 77% 0.0 mm 16 W/m2
21:07 18.3 °C 14.2 °C 1015.2 hPa West 3.2 km/h 6.4 km/h 77% 0.0 mm 12 W/m2
21:12 18.2 °C 14.1 °C 1015.2 hPa West 4.7 km/h 6.4 km/h 77% 0.0 mm 11 W/m2
21:17 18.1 °C 14.2 °C 1015.2 hPa West 1.4 km/h 3.2 km/h 78% 0.0 mm 7 W/m2
21:22 18 °C 14.1 °C 1015.2 hPa SW 3.2 km/h 4.8 km/h 78% 0.0 mm 7 W/m2
21:27 17.9 °C 14 °C 1015.2 hPa SW 1.4 km/h 1.6 km/h 78% 0.0 mm 5 W/m2
21:32 17.9 °C 14 °C 1015.6 hPa WSW 1.4 km/h 6.4 km/h 78% 0.0 mm 0 W/m2
21:37 17.8 °C 13.9 °C 1015.6 hPa Calm   3.2 km/h 78% 0.0 mm 0 W/m2
21:42 17.7 °C 13.8 °C 1015.6 hPa Calm   6.4 km/h 78% 0.0 mm 0 W/m2
21:48 17.7 °C 13.6 °C 1015.6 hPa West 1.4 km/h 6.4 km/h 77% 0.0 mm 0 W/m2
21:53 17.7 °C 13.6 °C 1015.9 hPa West 1.4 km/h 3.2 km/h 77% 0.0 mm 0 W/m2
21:58 17.7 °C 13.8 °C 1015.9 hPa Calm   4.8 km/h 78% 0.0 mm 0 W/m2
22:03 17.6 °C 13.7 °C 1015.9 hPa West 1.4 km/h 3.2 km/h 78% 0.0 mm 0 W/m2
22:08 17.6 °C 13.7 °C 1015.9 hPa Calm   4.8 km/h 78% 0.0 mm 0 W/m2
22:13 17.5 °C 13.6 °C 1015.9 hPa WSW 1.4 km/h 3.2 km/h 78% 0.0 mm 0 W/m2
22:18 17.4 °C 13.7 °C 1015.9 hPa Calm   3.2 km/h 79% 0.0 mm 0 W/m2
22:23 17.3 °C 13.6 °C 1015.9 hPa Calm     79% 0.0 mm 0 W/m2
22:28 17.2 °C 13.7 °C 1015.9 hPa Calm   3.2 km/h 80% 0.0 mm 0 W/m2
22:33 17.1 °C 13.6 °C 1015.9 hPa Calm     80% 0.0 mm 0 W/m2
22:38 17 °C 13.7 °C 1015.9 hPa Calm     81% 0.0 mm 0 W/m2
22:43 16.8 °C 13.7 °C 1015.9 hPa Calm     82% 0.0 mm 0 W/m2
22:48 16.7 °C 13.6 °C 1015.9 hPa Calm     82% 0.0 mm 0 W/m2
22:53 16.6 °C 13.7 °C 1015.9 hPa Calm     83% 0.0 mm 0 W/m2
22:58 16.5 °C 13.6 °C 1015.9 hPa Calm     83% 0.0 mm 0 W/m2
23:03 16.4 °C 13.7 °C 1015.9 hPa Calm     84% 0.0 mm 0 W/m2
23:08 16.3 °C 13.8 °C 1015.9 hPa Calm     85% 0.0 mm 0 W/m2
23:13 16.2 °C 13.7 °C 1015.9 hPa Calm     85% 0.0 mm 0 W/m2
23:18 16.1 °C 13.8 °C 1015.9 hPa Calm     86% 0.0 mm 0 W/m2
23:23 16.1 °C 13.8 °C 1015.9 hPa West 1.4 km/h 4.8 km/h 86% 0.0 mm 0 W/m2
23:28 16.1 °C 13.8 °C 1015.9 hPa West 4.7 km/h 4.8 km/h 86% 0.0 mm 0 W/m2
23:33 16.3 °C 13.8 °C 1016.3 hPa West 1.4 km/h 6.4 km/h 85% 0.0 mm 0 W/m2
23:38 16.4 °C 13.7 °C 1015.9 hPa WSW 3.2 km/h 6.4 km/h 84% 0.0 mm 0 W/m2
23:43 16.6 °C 13.7 °C 1015.9 hPa WNW 1.4 km/h 3.2 km/h 83% 0.0 mm 0 W/m2
23:48 16.7 °C 13.8 °C 1015.9 hPa Calm   6.4 km/h 83% 0.0 mm 0 W/m2
23:53 16.8 °C 13.7 °C 1015.9 hPa West 4.7 km/h 6.4 km/h 82% 0.0 mm 0 W/m2
23:58 16.8 °C 13.5 °C 1016.3 hPa West 4.7 km/h 8 km/h 81% 0.0 mm 0 W/m2
Juneau County Weather
Compliments of Weather Underground - 4 mb